sensor_id;sensor_type;location;lat;lon;timestamp;pressure;altitude;pressure_sealevel;temperature;humidity
12913;BME280;6524;51.368;11.984;2024-02-16T00:03:43;153793.84;;;8.48;75.95
12913;BME280;6524;51.368;11.984;2024-02-16T00:08:43;153836.88;;;8.65;75.35
12913;BME280;6524;51.368;11.984;2024-02-16T00:13:44;153810.84;;;8.55;75.51
12913;BME280;6524;51.368;11.984;2024-02-16T00:18:44;153809.53;;;8.54;75.75
12913;BME280;6524;51.368;11.984;2024-02-16T00:23:45;153780.81;;;8.43;75.33
12913;BME280;6524;51.368;11.984;2024-02-16T00:28:45;153793.84;;;8.48;75.23
12913;BME280;6524;51.368;11.984;2024-02-16T00:33:46;153710.50;;;8.16;76.45
12913;BME280;6524;51.368;11.984;2024-02-16T00:38:46;153668.84;;;7.99;77.46
12913;BME280;6524;51.368;11.984;2024-02-16T00:43:47;153683.16;;;8.05;77.12
12913;BME280;6524;51.368;11.984;2024-02-16T00:48:47;153701.38;;;8.12;76.88
12913;BME280;6524;51.368;11.984;2024-02-16T00:53:47;153724.81;;;8.21;76.54
12913;BME280;6524;51.368;11.984;2024-02-16T00:58:48;153736.56;;;8.26;76.47
12913;BME280;6524;51.368;11.984;2024-02-16T01:03:48;153759.97;;;8.35;75.73
12913;BME280;6524;51.368;11.984;2024-02-16T01:08:49;153707.91;;;8.15;76.42
12913;BME280;6524;51.368;11.984;2024-02-16T01:13:49;153744.31;;;8.29;76.01
12913;BME280;6524;51.368;11.984;2024-02-16T01:18:50;153689.69;;;8.07;76.56
12913;BME280;6524;51.368;11.984;2024-02-16T01:23:50;153689.69;;;8.07;76.28
12913;BME280;6524;51.368;11.984;2024-02-16T01:28:50;153667.53;;;7.99;76.36
12913;BME280;6524;51.368;11.984;2024-02-16T01:33:51;153661.03;;;7.96;76.33
12913;BME280;6524;51.368;11.984;2024-02-16T01:38:52;153616.78;;;7.79;77.04
12913;BME280;6524;51.368;11.984;2024-02-16T01:43:53;153588.13;;;7.68;77.46
12913;BME280;6524;51.368;11.984;2024-02-16T01:48:55;153588.13;;;7.68;77.54
12913;BME280;6524;51.368;11.984;2024-02-16T01:53:55;153601.16;;;7.73;77.28
12913;BME280;6524;51.368;11.984;2024-02-16T01:58:56;153608.97;;;7.76;76.83
12913;BME280;6524;51.368;11.984;2024-02-16T02:03:57;153589.44;;;7.68;77.28
12913;BME280;6524;51.368;11.984;2024-02-16T02:08:57;153629.78;;;7.84;76.43
12913;BME280;6524;51.368;11.984;2024-02-16T02:13:58;153614.16;;;7.78;76.64
12913;BME280;6524;51.368;11.984;2024-02-16T05:01:16;153806.91;;;8.53;73.93
12913;BME280;6524;51.368;11.984;2024-02-16T05:06:17;153784.75;;;8.45;74.35
12913;BME280;6524;51.368;11.984;2024-02-16T05:11:17;153866.84;;;8.77;73.31
12913;BME280;6524;51.368;11.984;2024-02-16T05:16:17;153900.69;;;8.90;72.38
12913;BME280;6524;51.368;11.984;2024-02-16T05:21:18;153946.31;;;9.08;71.34
12913;BME280;6524;51.368;11.984;2024-02-16T05:26:19;153924.16;;;8.99;72.16
12913;BME280;6524;51.368;11.984;2024-02-16T05:31:20;153911.09;;;8.94;71.96
12913;BME280;6524;51.368;11.984;2024-02-16T05:36:21;153911.09;;;8.94;71.70
12913;BME280;6524;51.368;11.984;2024-02-16T05:41:25;153848.63;;;8.70;72.22
12913;BME280;6524;51.368;11.984;2024-02-16T05:46:25;153900.69;;;8.90;72.08
12913;BME280;6524;51.368;11.984;2024-02-16T05:51:26;153973.66;;;9.19;70.97
12913;BME280;6524;51.368;11.984;2024-02-16T05:56:26;153918.91;;;8.97;71.44
12913;BME280;6524;51.368;11.984;2024-02-16T06:01:29;153931.97;;;9.02;70.96
12913;BME280;6524;51.368;11.984;2024-02-16T06:06:29;153856.44;;;8.73;72.44
12913;BME280;6524;51.368;11.984;2024-02-16T06:11:31;153838.16;;;8.66;72.86
12913;BME280;6524;51.368;11.984;2024-02-16T06:16:31;153885.06;;;8.84;72.20
12913;BME280;6524;51.368;11.984;2024-02-16T06:21:31;153869.44;;;8.78;71.97
12913;BME280;6524;51.368;11.984;2024-02-16T06:26:32;153918.91;;;8.97;71.41
12913;BME280;6524;51.368;11.984;2024-02-16T06:31:32;153908.50;;;8.93;71.45
12913;BME280;6524;51.368;11.984;2024-02-16T06:36:32;153887.66;;;8.85;71.74
12913;BME280;6524;51.368;11.984;2024-02-16T06:41:33;153931.97;;;9.02;71.23
12913;BME280;6524;51.368;11.984;2024-02-16T06:46:33;153998.41;;;9.28;70.32
12913;BME280;6524;51.368;11.984;2024-02-16T06:51:34;153954.13;;;9.11;70.49
12913;BME280;6524;51.368;11.984;2024-02-16T06:56:34;153931.97;;;9.02;71.07
12913;BME280;6524;51.368;11.984;2024-02-16T07:01:35;153997.09;;;9.28;70.26
12913;BME280;6524;51.368;11.984;2024-02-16T07:06:36;154072.72;;;9.58;69.50
12913;BME280;6524;51.368;11.984;2024-02-16T07:11:36;154044.03;;;9.46;68.69
12913;BME280;6524;51.368;11.984;2024-02-16T07:16:38;154182.25;;;10.01;67.02
12913;BME280;6524;51.368;11.984;2024-02-16T07:21:38;154265.72;;;10.33;65.78
12913;BME280;6524;51.368;11.984;2024-02-16T07:26:38;154351.75;;;10.67;64.76
12913;BME280;6524;51.368;11.984;2024-02-16T07:31:38;154414.44;;;10.92;63.87
12913;BME280;6524;51.368;11.984;2024-02-16T07:36:39;154466.66;;;11.12;62.76
12913;BME280;6524;51.368;11.984;2024-02-16T07:41:39;154512.34;;;11.30;62.07
12913;BME280;6524;51.368;11.984;2024-02-16T07:46:40;154589.31;;;11.60;60.94
12913;BME280;6524;51.368;11.984;2024-02-16T07:51:41;154687.28;;;11.98;59.65
12913;BME280;6524;51.368;11.984;2024-02-16T07:56:41;154790.44;;;12.39;58.67
12913;BME280;6524;51.368;11.984;2024-02-16T08:01:41;154860.97;;;12.66;57.48
12913;BME280;6524;51.368;11.984;2024-02-16T08:06:44;154791.72;;;12.39;57.73
12913;BME280;6524;51.368;11.984;2024-02-16T08:11:44;154661.16;;;11.88;59.29
12913;BME280;6524;51.368;11.984;2024-02-16T08:16:45;154751.25;;;12.23;58.69
12913;BME280;6524;51.368;11.984;2024-02-16T08:21:45;154534.50;;;11.39;60.93
12913;BME280;6524;51.368;11.984;2024-02-16T08:26:46;154568.47;;;11.52;60.94
12913;BME280;6524;51.368;11.984;2024-02-16T08:31:49;154704.28;;;12.05;59.21
12913;BME280;6524;51.368;11.984;2024-02-16T08:36:50;154628.47;;;11.75;60.20
12913;BME280;6524;51.368;11.984;2024-02-16T08:41:51;154564.53;;;11.50;60.79
12913;BME280;6524;51.368;11.984;2024-02-16T08:46:52;154526.66;;;11.35;61.22
12913;BME280;6524;51.368;11.984;2024-02-16T08:51:53;154550.16;;;11.45;61.28
12913;BME280;6524;51.368;11.984;2024-02-16T08:56:53;154760.44;;;12.27;59.16
12913;BME280;6524;51.368;11.984;2024-02-16T09:01:54;154678.13;;;11.95;60.08
12913;BME280;6524;51.368;11.984;2024-02-16T09:06:55;154691.22;;;12.00;59.88
12913;BME280;6524;51.368;11.984;2024-02-16T09:11:55;154725.16;;;12.13;59.44
12913;BME280;6524;51.368;11.984;2024-02-16T09:16:55;154719.91;;;12.11;59.71
12913;BME280;6524;51.368;11.984;2024-02-16T09:21:56;154705.56;;;12.06;59.56
12913;BME280;6524;51.368;11.984;2024-02-16T09:26:58;154675.53;;;11.94;59.31
12913;BME280;6524;51.368;11.984;2024-02-16T09:32:04;154774.75;;;12.33;58.20
12913;BME280;6524;51.368;11.984;2024-02-16T09:37:05;154840.06;;;12.58;57.54
12913;BME280;6524;51.368;11.984;2024-02-16T09:42:05;154942.00;;;12.98;56.53
12913;BME280;6524;51.368;11.984;2024-02-16T09:47:06;154782.59;;;12.36;57.81
12913;BME280;6524;51.368;11.984;2024-02-16T09:52:10;154952.50;;;13.02;56.79
12913;BME280;6524;51.368;11.984;2024-02-16T09:57:16;154996.91;;;13.19;57.90
12913;BME280;6524;51.368;11.984;2024-02-16T10:02:17;154999.50;;;13.21;58.62
12913;BME280;6524;51.368;11.984;2024-02-16T10:07:17;155083.16;;;13.53;58.13
12913;BME280;6524;51.368;11.984;2024-02-16T10:12:18;155161.66;;;13.84;57.35
12913;BME280;6524;51.368;11.984;2024-02-16T10:17:19;155249.25;;;14.18;56.82
12913;BME280;6524;51.368;11.984;2024-02-16T10:22:20;155041.34;;;13.37;57.08
12913;BME280;6524;51.368;11.984;2024-02-16T10:27:20;154973.38;;;13.10;58.39
12913;BME280;6524;51.368;11.984;2024-02-16T10:32:21;154973.38;;;13.10;57.71
12913;BME280;6524;51.368;11.984;2024-02-16T10:37:23;154983.81;;;13.14;58.91
12913;BME280;6524;51.368;11.984;2024-02-16T10:42:27;154952.50;;;13.02;59.19
12913;BME280;6524;51.368;11.984;2024-02-16T10:47:27;154881.94;;;12.75;59.65
12913;BME280;6524;51.368;11.984;2024-02-16T10:52:28;154854.44;;;12.64;60.54
12913;BME280;6524;51.368;11.984;2024-02-16T10:57:29;154834.84;;;12.56;60.60
12913;BME280;6524;51.368;11.984;2024-02-16T11:02:31;154940.72;;;12.98;61.08
12913;BME280;6524;51.368;11.984;2024-02-16T11:07:31;154974.69;;;13.11;60.34
12913;BME280;6524;51.368;11.984;2024-02-16T11:12:35;155036.09;;;13.35;59.97
12913;BME280;6524;51.368;11.984;2024-02-16T11:17:35;155174.69;;;13.89;58.53
12913;BME280;6524;51.368;11.984;2024-02-16T11:22:37;155255.75;;;14.21;57.39
12913;BME280;6524;51.368;11.984;2024-02-16T11:27:39;155467.75;;;15.03;56.08
12913;BME280;6524;51.368;11.984;2024-02-16T11:32:42;155541.00;;;15.32;53.52
12913;BME280;6524;51.368;11.984;2024-02-16T11:37:43;155771.50;;;16.22;50.95
12913;BME280;6524;51.368;11.984;2024-02-16T11:42:45;156329.78;;;18.40;46.28
12913;BME280;6524;51.368;11.984;2024-02-16T11:47:47;156210.47;;;17.93;45.83
12913;BME280;6524;51.368;11.984;2024-02-16T11:52:47;156169.84;;;17.77;47.26
12913;BME280;6524;51.368;11.984;2024-02-16T11:57:47;156413.78;;;18.73;44.58
12913;BME280;6524;51.368;11.984;2024-02-16T12:02:59;156576.50;;;19.36;43.49
12913;BME280;6524;51.368;11.984;2024-02-16T12:08:00;156321.91;;;18.37;45.55
12913;BME280;6524;51.368;11.984;2024-02-16T12:13:00;156033.50;;;17.24;47.73
12913;BME280;6524;51.368;11.984;2024-02-16T12:18:01;155732.19;;;16.07;50.46
12913;BME280;6524;51.368;11.984;2024-02-16T12:23:12;155598.63;;;15.55;51.91
12913;BME280;6524;51.368;11.984;2024-02-16T12:28:13;155546.25;;;15.34;53.63
12913;BME280;6524;51.368;11.984;2024-02-16T12:33:14;155575.06;;;15.45;53.99
12913;BME280;6524;51.368;11.984;2024-02-16T12:38:14;155556.75;;;15.38;54.21
12913;BME280;6524;51.368;11.984;2024-02-16T12:43:17;155593.38;;;15.53;54.53
12913;BME280;6524;51.368;11.984;2024-02-16T12:48:19;155554.16;;;15.37;54.05
12913;BME280;6524;51.368;11.984;2024-02-16T12:53:20;155960.13;;;16.96;53.80
12913;BME280;6524;51.368;11.984;2024-02-16T12:58:24;156101.66;;;17.51;51.07
12913;BME280;6524;51.368;11.984;2024-02-16T13:03:25;156206.56;;;17.92;47.20
12913;BME280;6524;51.368;11.984;2024-02-16T13:08:25;156303.56;;;18.30;47.72
12913;BME280;6524;51.368;11.984;2024-02-16T13:13:25;156154.09;;;17.71;46.43
12913;BME280;6524;51.368;11.984;2024-02-16T13:18:26;156331.09;;;18.40;46.37
12913;BME280;6524;51.368;11.984;2024-02-16T13:23:27;156126.56;;;17.61;47.01
12913;BME280;6524;51.368;11.984;2024-02-16T13:28:29;155983.72;;;17.05;48.14
12913;BME280;6524;51.368;11.984;2024-02-16T13:33:29;155952.22;;;16.93;49.25
12913;BME280;6524;51.368;11.984;2024-02-16T13:38:29;155889.34;;;16.68;49.10
12913;BME280;6524;51.368;11.984;2024-02-16T13:43:30;155848.75;;;16.52;50.79
12913;BME280;6524;51.368;11.984;2024-02-16T13:48:30;155910.31;;;16.76;49.77
12913;BME280;6524;51.368;11.984;2024-02-16T13:53:31;155954.88;;;16.94;49.51
12913;BME280;6524;51.368;11.984;2024-02-16T13:58:31;155952.22;;;16.93;50.89
12913;BME280;6524;51.368;11.984;2024-02-16T14:03:32;155842.19;;;16.50;49.96
12913;BME280;6524;51.368;11.984;2024-02-16T14:08:33;155871.00;;;16.61;51.05
12913;BME280;6524;51.368;11.984;2024-02-16T14:13:34;155836.97;;;16.48;52.05
12913;BME280;6524;51.368;11.984;2024-02-16T14:18:34;155725.63;;;16.04;52.45
12913;BME280;6524;51.368;11.984;2024-02-16T14:23:35;155753.09;;;16.15;51.62
12913;BME280;6524;51.368;11.984;2024-02-16T14:28:35;155949.63;;;16.92;50.63
12913;BME280;6524;51.368;11.984;2024-02-16T14:33:36;156007.31;;;17.14;50.33
12913;BME280;6524;51.368;11.984;2024-02-16T14:38:36;155936.50;;;16.86;50.02
12913;BME280;6524;51.368;11.984;2024-02-16T14:43:36;155855.28;;;16.55;51.08
12913;BME280;6524;51.368;11.984;2024-02-16T14:48:38;155670.63;;;15.83;52.17
12913;BME280;6524;51.368;11.984;2024-02-16T14:53:39;155871.00;;;16.61;51.23
12913;BME280;6524;51.368;11.984;2024-02-16T14:58:39;155666.72;;;15.81;50.84
12913;BME280;6524;51.368;11.984;2024-02-16T15:03:39;155633.94;;;15.68;51.50
12913;BME280;6524;51.368;11.984;2024-02-16T15:08:40;155534.47;;;15.30;51.37
12913;BME280;6524;51.368;11.984;2024-02-16T15:13:41;155627.44;;;15.66;51.08
12913;BME280;6524;51.368;11.984;2024-02-16T15:18:42;155747.88;;;16.13;51.24
12913;BME280;6524;51.368;11.984;2024-02-16T15:23:43;155647.06;;;15.74;51.76
12913;BME280;6524;51.368;11.984;2024-02-16T15:28:43;155552.81;;;15.37;52.94
12913;BME280;6524;51.368;11.984;2024-02-16T15:33:44;155491.28;;;15.13;52.86
12913;BME280;6524;51.368;11.984;2024-02-16T15:38:44;155509.59;;;15.20;53.41
12913;BME280;6524;51.368;11.984;2024-02-16T15:43:44;155381.38;;;14.70;54.76
12913;BME280;6524;51.368;11.984;2024-02-16T15:48:45;155389.22;;;14.73;55.16
12913;BME280;6524;51.368;11.984;2024-02-16T15:53:47;155263.59;;;14.24;57.04
12913;BME280;6524;51.368;11.984;2024-02-16T15:58:47;155356.53;;;14.60;56.13
12913;BME280;6524;51.368;11.984;2024-02-16T16:03:47;155466.44;;;15.03;55.47
12913;BME280;6524;51.368;11.984;2024-02-16T16:08:48;155431.09;;;14.89;55.88
12913;BME280;6524;51.368;11.984;2024-02-16T16:13:51;155313.34;;;14.43;58.80
12913;BME280;6524;51.368;11.984;2024-02-16T16:18:51;155386.63;;;14.72;58.54
12913;BME280;6524;51.368;11.984;2024-02-16T16:23:55;155247.91;;;14.18;59.71
12913;BME280;6524;51.368;11.984;2024-02-16T16:28:55;155211.34;;;14.03;60.29
12913;BME280;6524;51.368;11.984;2024-02-16T16:33:56;155200.84;;;13.99;59.55
12913;BME280;6524;51.368;11.984;2024-02-16T16:38:56;155190.41;;;13.95;60.35
12913;BME280;6524;51.368;11.984;2024-02-16T16:43:56;155166.84;;;13.86;60.53
12913;BME280;6524;51.368;11.984;2024-02-16T16:48:57;155185.19;;;13.93;60.42
12913;BME280;6524;51.368;11.984;2024-02-16T16:54:02;155132.88;;;13.73;61.34
12913;BME280;6524;51.368;11.984;2024-02-16T16:59:04;155143.31;;;13.77;61.46
12913;BME280;6524;51.368;11.984;2024-02-16T17:04:07;155152.47;;;13.80;61.31
12913;BME280;6524;51.368;11.984;2024-02-16T17:09:08;155152.47;;;13.80;61.45
12913;BME280;6524;51.368;11.984;2024-02-16T17:14:10;155088.38;;;13.55;62.20
12913;BME280;6524;51.368;11.984;2024-02-16T17:19:10;154968.13;;;13.08;63.29
12913;BME280;6524;51.368;11.984;2024-02-16T17:24:11;155007.34;;;13.24;63.02
12913;BME280;6524;51.368;11.984;2024-02-16T17:29:13;155041.34;;;13.37;62.77
12913;BME280;6524;51.368;11.984;2024-02-16T17:34:13;155008.69;;;13.24;63.32
12913;BME280;6524;51.368;11.984;2024-02-16T17:39:14;154949.84;;;13.01;64.01
12913;BME280;6524;51.368;11.984;2024-02-16T17:44:14;154928.97;;;12.93;64.35
12913;BME280;6524;51.368;11.984;2024-02-16T17:49:15;154902.81;;;12.83;64.92
12913;BME280;6524;51.368;11.984;2024-02-16T17:54:15;154889.78;;;12.78;65.71
12913;BME280;6524;51.368;11.984;2024-02-16T17:59:16;154847.91;;;12.61;66.12
12913;BME280;6524;51.368;11.984;2024-02-16T18:04:17;154862.28;;;12.67;65.87
12913;BME280;6524;51.368;11.984;2024-02-16T18:09:18;154840.06;;;12.58;66.07
12913;BME280;6524;51.368;11.984;2024-02-16T18:14:18;154798.28;;;12.42;66.78
12913;BME280;6524;51.368;11.984;2024-02-16T18:19:18;154832.25;;;12.55;66.67
12913;BME280;6524;51.368;11.984;2024-02-16T18:24:19;154759.09;;;12.26;67.42
12913;BME280;6524;51.368;11.984;2024-02-16T18:29:19;154793.06;;;12.40;66.93
12913;BME280;6524;51.368;11.984;2024-02-16T18:34:19;154847.91;;;12.61;66.40
12913;BME280;6524;51.368;11.984;2024-02-16T18:39:20;154813.94;;;12.48;66.77
12913;BME280;6524;51.368;11.984;2024-02-16T18:44:20;154871.41;;;12.70;66.06
12913;BME280;6524;51.368;11.984;2024-02-16T18:49:21;154871.41;;;12.70;65.59
12913;BME280;6524;51.368;11.984;2024-02-16T18:54:21;154934.19;;;12.95;64.69
12913;BME280;6524;51.368;11.984;2024-02-16T18:59:22;154910.66;;;12.86;65.22
12913;BME280;6524;51.368;11.984;2024-02-16T19:04:22;154915.91;;;12.88;65.54
12913;BME280;6524;51.368;11.984;2024-02-16T19:09:22;154871.41;;;12.70;66.39
12913;BME280;6524;51.368;11.984;2024-02-16T19:14:23;154883.25;;;12.75;66.10
12913;BME280;6524;51.368;11.984;2024-02-16T19:19:24;154871.41;;;12.70;66.08
12913;BME280;6524;51.368;11.984;2024-02-16T19:24:26;154889.78;;;12.78;65.90
12913;BME280;6524;51.368;11.984;2024-02-16T19:29:26;154894.97;;;12.80;65.84
12913;BME280;6524;51.368;11.984;2024-02-16T19:34:27;154878.00;;;12.73;66.17
12913;BME280;6524;51.368;11.984;2024-02-16T19:39:27;154880.66;;;12.74;66.84
12913;BME280;6524;51.368;11.984;2024-02-16T19:44:28;154787.84;;;12.38;68.72
12913;BME280;6524;51.368;11.984;2024-02-16T19:49:31;154740.81;;;12.19;70.99
12913;BME280;6524;51.368;11.984;2024-02-16T19:54:32;154675.53;;;11.94;73.09
12913;BME280;6524;51.368;11.984;2024-02-16T19:59:32;154680.78;;;11.96;74.11
12913;BME280;6524;51.368;11.984;2024-02-16T20:04:33;154631.06;;;11.76;75.40
12913;BME280;6524;51.368;11.984;2024-02-16T20:09:33;154599.75;;;11.64;77.56
12913;BME280;6524;51.368;11.984;2024-02-16T20:14:34;154565.81;;;11.51;79.46
12913;BME280;6524;51.368;11.984;2024-02-16T20:19:35;154542.31;;;11.42;80.80
12913;BME280;6524;51.368;11.984;2024-02-16T20:24:36;154552.81;;;11.46;81.02
12913;BME280;6524;51.368;11.984;2024-02-16T20:29:36;154581.47;;;11.57;81.21
12913;BME280;6524;51.368;11.984;2024-02-16T20:34:37;154497.97;;;11.24;82.92
12913;BME280;6524;51.368;11.984;2024-02-16T20:39:37;154465.34;;;11.11;83.28
12913;BME280;6524;51.368;11.984;2024-02-16T20:44:39;154451.00;;;11.06;84.02
12913;BME280;6524;51.368;11.984;2024-02-16T20:49:39;154444.47;;;11.03;83.70
12913;BME280;6524;51.368;11.984;2024-02-16T20:54:39;154414.44;;;10.92;84.03
12913;BME280;6524;51.368;11.984;2024-02-16T20:59:41;154394.91;;;10.84;84.67
12913;BME280;6524;51.368;11.984;2024-02-16T21:04:41;154377.94;;;10.77;84.89
12913;BME280;6524;51.368;11.984;2024-02-16T21:09:42;154374.00;;;10.76;85.16
12913;BME280;6524;51.368;11.984;2024-02-16T21:14:42;154355.72;;;10.69;84.97
12913;BME280;6524;51.368;11.984;2024-02-16T21:19:43;154375.31;;;10.76;84.90
12913;BME280;6524;51.368;11.984;2024-02-16T21:24:44;154419.69;;;10.94;84.07
12913;BME280;6524;51.368;11.984;2024-02-16T21:29:45;154406.63;;;10.88;84.48
12913;BME280;6524;51.368;11.984;2024-02-16T21:34:46;154414.44;;;10.92;84.68
12913;BME280;6524;51.368;11.984;2024-02-16T21:39:48;154422.28;;;10.95;84.75
12913;BME280;6524;51.368;11.984;2024-02-16T21:44:48;154427.50;;;10.97;84.41
12913;BME280;6524;51.368;11.984;2024-02-16T21:49:48;154417.09;;;10.93;84.69
12913;BME280;6524;51.368;11.984;2024-02-16T21:54:50;154368.78;;;10.74;85.74
12913;BME280;6524;51.368;11.984;2024-02-16T21:59:52;154367.41;;;10.73;85.91
12913;BME280;6524;51.368;11.984;2024-02-16T22:04:54;154362.25;;;10.71;86.04
12913;BME280;6524;51.368;11.984;2024-02-16T22:09:55;154359.59;;;10.70;86.15
12913;BME280;6524;51.368;11.984;2024-02-16T22:14:56;154315.28;;;10.53;87.03
12913;BME280;6524;51.368;11.984;2024-02-16T22:19:57;154257.91;;;10.30;88.50
12913;BME280;6524;51.368;11.984;2024-02-16T22:25:00;154256.59;;;10.30;88.67
12913;BME280;6524;51.368;11.984;2024-02-16T22:30:00;154344.00;;;10.64;87.38
12913;BME280;6524;51.368;11.984;2024-02-16T22:35:01;154355.72;;;10.69;87.41
12913;BME280;6524;51.368;11.984;2024-02-16T22:40:03;154380.53;;;10.78;87.14
12913;BME280;6524;51.368;11.984;2024-02-16T22:45:08;154357.00;;;10.69;87.11
12913;BME280;6524;51.368;11.984;2024-02-16T22:50:10;154417.09;;;10.93;85.46
12913;BME280;6524;51.368;11.984;2024-02-16T22:55:11;154443.16;;;11.03;84.91
12913;BME280;6524;51.368;11.984;2024-02-16T23:00:11;154390.97;;;10.82;85.73
12913;BME280;6524;51.368;11.984;2024-02-16T23:05:21;154413.16;;;10.91;84.95
12913;BME280;6524;51.368;11.984;2024-02-16T23:10:22;154404.03;;;10.87;85.11
12913;BME280;6524;51.368;11.984;2024-02-16T23:15:22;154389.66;;;10.82;85.28
12913;BME280;6524;51.368;11.984;2024-02-16T23:20:26;154346.59;;;10.65;86.01
12913;BME280;6524;51.368;11.984;2024-02-16T23:25:27;154344.00;;;10.64;85.94
12913;BME280;6524;51.368;11.984;2024-02-16T23:30:28;154273.56;;;10.36;87.05
12913;BME280;6524;51.368;11.984;2024-02-16T23:35:28;154247.44;;;10.26;87.45
12913;BME280;6524;51.368;11.984;2024-02-16T23:40:29;154226.59;;;10.18;86.08
12913;BME280;6524;51.368;11.984;2024-02-16T23:45:32;154203.13;;;10.09;84.82
12913;BME280;6524;51.368;11.984;2024-02-16T23:50:34;154154.88;;;9.90;84.81
12913;BME280;6524;51.368;11.984;2024-02-16T23:55:34;154156.19;;;9.90;84.93
